logo
App data

Dungeon Hearts

Dungeon Hearts fuses the strategy and pattern matching of puzzle games with the kinetic pace of action games. Align magical runes as they flow along the Fatestream to attack, defend, and conjure magic in frenetic battles against a bestiary of fantastic creatures out to use those same runes against you.
Store | Hub | SteamDB | Site
Developer: Cube Roots Publisher: Devolver Digital
Genre: Casual, Indie, Strategy
Languages: English
Tags: Casual (51), Indie (45), Strategy (34), Puzzle (33), Match 3 (32), Action (17), Singleplayer (11), Fantasy (10), Arcade (10), RPG (9), Female Protagonist (5)
Category: Single-player, Steam Trading Cards, Steam Leaderboards
Release date: Mar 28, 2013
Price: $2.99
Score rank: 28% Userscore: 67% Old userscore: 64% Metascore: 73%
Owners: 50,000 .. 100,000
Followers: 462
Peak concurrent players yesterday: 1
YouTube stats: 87 views and 4 comments for videos uploaded last week, 0 new videos uploaded yesterday.
Playtime total: 03:08 (average) 02:33 (median)

Steam Spy is still in beta, so expect major bugs.

Owners data:

Access restricted.

This feature is only available to users with special access rights. Sorry.

If you want to proceed, you need to register or log in first and then back Steam Spy on Patreon. Look for Indie or Pro pledge.

Don't forget to use the same email as on Steam Spy!

Audience in 2 weeks:

Access restricted.

This feature is only available to users with special access rights. Sorry.

If you want to proceed, you need to register or log in first and then back Steam Spy on Patreon. Look for Indie or Pro pledge.

Don't forget to use the same email as on Steam Spy!

Peak daily concurrent players:

CCU data courtesy of SteamDB. Used with permission.

Hourly concurrent players:

Daily Twitch stats:

Hourly Twitch stats:

YouTube:

The views data is based on top 50 videos uploaded last week. Actual number of views might be more than the number shown.

The displayed number of videos uploaded yesterday is limited to 50, so if there were more videos uploaded, the number will still show 50.

If the game has commonly used word as its name (like "FEAR" or "Volume") its number of Youtube views might be wrong.

Games similar to this one:

# Game Release date
Price
Score rank
(Userscore / Metascore)
Owners
Players
Playtime (Median)
1 Deadly Sin 2 May 12, 2014 $4.9995% (96%)100,000 .. 200,0000%00:00 (00:00)
2 Slime-san: Superslime Edition Apr 7, 2017 $14.9995% (96%/78%)20,000 .. 50,0000%00:00 (00:00)
3 Green Elephant 2D Apr 20, 2017 $1.9995% (96%)20,000 .. 50,0000%00:00 (00:00)
4 Avernum 6 May 11, 2012 $4.99N/A (N/A)50,000 .. 100,0000%00:00 (00:00)
5 Invisigun Heroes Feb 8, 2017 Free80% (91%)20,000 .. 50,0000%00:00 (00:00)
6 Fenix Rage Sep 24, 2014 $3.7480% (91%/75%)20,000 .. 50,0000%00:00 (00:00)
7 Port of Call Aug 28, 2015 Free77% (90%)100,000 .. 200,0000.62%00:01 (00:00)
8 Konung 2 Apr 23, 2014 $2.9974% (89%/35%)20,000 .. 50,0000%00:00 (00:00)
9 Elven Assassin Sep 10, 2016 $14.9974% (89%)0 .. 20,0000%00:00 (00:00)
10 Offspring Fling! May 11, 2012 $7.9974% (89%/79%)200,000 .. 500,0000.26%02:30 (00:50)
11 INK Aug 5, 2015 $4.9968% (87%/68%)100,000 .. 200,0000.44%00:34 (00:22)
12 Sublevel Zero Redux Oct 8, 2015 $14.9968% (87%/71%)0 .. 20,0003.45%00:15 (00:05)
13 They Breathe May 23, 2014 $1.9968% (87%)50,000 .. 100,0000%00:00 (00:00)
14 Freaking Meatbags Feb 4, 2015 $9.9968% (87%/69%)20,000 .. 50,0000%00:00 (00:00)
15 The Basement Collection Aug 31, 2012 $3.9966% (86%)200,000 .. 500,0000%00:00 (00:00)
16 Eschalon: Book I Feb 10, 2009 Free66% (86%/75%)50,000 .. 100,0000%00:00 (00:00)
17 Evolution VR Feb 3, 2017 $9.9966% (86%)0 .. 20,0000%00:00 (00:00)
18 Plug & Play Mar 5, 2015 $2.9963% (85%)100,000 .. 200,0000%00:00 (00:00)
19 A Bird Story Nov 7, 2014 $3.9961% (84%/66%)200,000 .. 500,0000.18%04:10 (01:23)
20 BADLAND: Game of the Year Edition May 26, 2015 $9.9961% (84%/79%)100,000 .. 200,0001.19%01:15 (00:49)
21 Exoplanet: First Contact Dec 9, 2016 $19.9956% (82%)0 .. 20,0000%00:00 (00:00)
22 DarkMaus Jan 26, 2016 $9.9954% (81%/83%)20,000 .. 50,0000%00:00 (00:00)
23 Paranormal Activity: The Lost Soul Aug 15, 2017 $29.9951% (80%)0 .. 20,00016.67%00:30 (00:29)
24 ChromaGun Feb 16, 2016 $12.9947% (78%)0 .. 20,0000%00:00 (00:00)
25 SAELIG Jun 30, 2017 $14.9945% (77%)0 .. 20,0000%00:00 (00:00)
26 Project Temporality May 2014 $14.9945% (77%)20,000 .. 50,0000%00:00 (00:00)
27 SickBrick Jan 30, 2015 $19.9945% (77%)50,000 .. 100,0000%00:00 (00:00)
28 Wizorb Mar 14, 2012 $2.9945% (77%/81%)200,000 .. 500,0000.34%00:11 (00:03)
29 Sandmason May 4, 2015 $3.9943% (76%)0 .. 20,0000%00:00 (00:00)
30 Where's My Mommy? Mar 1, 2016 $5.9943% (76%)0 .. 20,0000%00:00 (00:00)
31 Avernum 5 May 11, 2012 $4.99N/A (N/A)50,000 .. 100,0000%00:00 (00:00)
32 Radiation Island Nov 29, 2016 $9.9940% (74%)0 .. 20,0000%00:00 (00:00)
33 Reaper - Tale of a Pale Swordsman Feb 7, 2014 $4.9940% (74%)50,000 .. 100,0000%00:00 (00:00)
34 Spirits Sep 4, 2012 $3.9938% (73%)200,000 .. 500,0000%00:00 (00:00)
35 Lovely Planet Arcade Jul 22, 2016 $5.9938% (73%/78%)0 .. 20,0000%00:00 (00:00)
36 Eternal Winter Nov 24, 2014 $9.9938% (73%)20,000 .. 50,0000%00:00 (00:00)
37 Secrets of Rætikon Apr 17, 2014 $9.9936% (72%)100,000 .. 200,0000%00:00 (00:00)
38 Artifact Adventure Jun 1, 2015 $3.4936% (72%)0 .. 20,0000%00:00 (00:00)
39 Hotel Anatolia Mar 20, 2017 $0.9936% (72%)100,000 .. 200,0000%00:00 (00:00)
40 A Virus Named TOM Aug 1, 2012 $9.9935% (71%/65%)200,000 .. 500,0000%00:00 (00:00)
41 Cart Racer Jun 5, 2017 $0.9933% (70%)0 .. 20,0000%00:00 (00:00)
42 The Sacred Tears TRUE Sep 25, 2014 $9.9933% (70%)20,000 .. 50,0000%00:00 (00:00)
43 Aaru's Awakening Feb 23, 2015 $14.9930% (68%)20,000 .. 50,0000%00:00 (00:00)
44 Project Explore Aug 10, 2017 $4.9930% (68%)0 .. 20,0000%00:00 (00:00)
45 Sol Trader Jun 6, 2016 $19.9928% (67%)0 .. 20,0000%00:00 (00:00)
46 Kill The Bad Guy May 28, 2014 $9.9928% (67%)50,000 .. 100,0000.51%00:14 (00:04)
47 Dark Quest Jan 21, 2015 $2.9923% (63%)0 .. 20,0000%00:00 (00:00)
48 The Deep Paths: Labyrinth Of Andokost Oct 26, 2016 $5.9922% (62%)0 .. 20,0000%00:00 (00:00)
49 Noir Syndrome Jun 4, 2014 $6.9921% (61%)20,000 .. 50,0000%00:00 (00:00)
50 Warlocks vs Shadows Aug 19, 2015 $13.9921% (61%/68%)20,000 .. 50,0000%00:00 (00:00)
51 HoCWar Dec 29, 2016 Free14% (54%)20,000 .. 50,0000%00:00 (00:00)
52 CodeSpells Sep 18, 2015 $19.9914% (54%)0 .. 20,0000%00:00 (00:00)
53 NS2: Combat Oct 31, 2014 Free13% (52%)0 .. 20,0000%00:00 (00:00)
54 Dungeons: The Eye of Draconus Aug 11, 2014 $2.9910% (48%)20,000 .. 50,0000.66%00:15 (00:05)
55 The Exiled Feb 23, 2017 Free10% (48%)20,000 .. 50,0000%00:00 (00:00)
56 Deadly Sin Mar 27, 2015 $4.99N/A (N/A)0 .. 20,0000%00:00 (00:00)
57 Star Nomad Dec 29, 2014 $0.99N/A (N/A)0 .. 20,0000%00:00 (00:00)
58 TUG Mar 28, 2014 N/A9% (46%)50,000 .. 100,0000%00:00 (00:00)
59 GiAnt Aug 2, 2016 $2.99N/A (N/A)0 .. 20,0000%00:00 (00:00)
60 Coldfire Keep May 9, 2014 $3.996% (39%)20,000 .. 50,0000%00:00 (00:00)
61 Corona MotorSport Mar 13, 2015 $9.996% (38%)0 .. 20,0000%00:00 (00:00)
62 After Reset RPG Mar 9, 2015 $49.995% (35%)0 .. 20,0000%00:00 (00:00)
63 Forsaken Fortress Strategy Sep 18, 2015 $9.993% (30%)0 .. 20,0000%00:00 (00:00)
64 Guise Of The Wolf Jan 24, 2014 $2.993% (30%)0 .. 20,0000%00:00 (00:00)
65 Isomer Jul 11, 2014 $9.992% (15%)0 .. 20,0000%00:00 (00:00)

Tags over time:

Access restricted.

This feature is only available to users with special access rights. Sorry.

If you want to proceed, you need to register or log in first and then back Steam Spy on Patreon. Look for Indie or Pro pledge.

Don't forget to use the same email as on Steam Spy!

Owners of this game also own:

Access restricted.

This feature is only available to users with special access rights. Sorry.

If you want to proceed, you need to register or log in first and then back Steam Spy on Patreon. Look for Indie or Pro pledge.

Don't forget to use the same email as on Steam Spy!

Playtime distribution:

Access restricted.

This feature is only available to users with special access rights. Sorry.

If you want to proceed, you need to register or log in first and then back Steam Spy on Patreon. Look for Indie or Pro pledge.

Don't forget to use the same email as on Steam Spy!

Playtime (2 weeks):

Access restricted.

This feature is only available to users with special access rights. Sorry.

If you want to proceed, you need to register or log in first and then back Steam Spy on Patreon. Look for Indie or Pro pledge.

Don't forget to use the same email as on Steam Spy!

User reviews:

Login required.

Please register or log in to see this information.